createdAt,value
2022-07-29T00:00:45.772Z,13.01
2022-07-29T00:01:45.739Z,13.02
2022-07-29T00:02:45.778Z,12.99
2022-07-29T00:03:45.842Z,13.05
2022-07-29T00:04:45.832Z,13.08
2022-07-29T00:05:45.821Z,13.11
2022-07-29T00:06:45.910Z,13.07
2022-07-29T00:07:46.128Z,13
2022-07-29T00:08:45.871Z,12.97
2022-07-29T00:09:51.620Z,12.94
2022-07-29T00:10:49.394Z,12.95
2022-07-29T00:11:49.687Z,13
2022-07-29T00:12:49.409Z,12.95
2022-07-29T00:13:51.600Z,12.93
2022-07-29T00:14:49.706Z,12.95
2022-07-29T00:15:49.513Z,12.95
2022-07-29T00:16:49.597Z,12.89
2022-07-29T00:17:49.495Z,12.93
2022-07-29T00:18:49.583Z,12.98
2022-07-29T00:19:49.618Z,12.88
2022-07-29T00:20:49.619Z,12.91
2022-07-29T00:21:49.574Z,12.88
2022-07-29T00:22:49.603Z,12.98
2022-07-29T00:23:49.604Z,13.03
2022-07-29T00:24:49.827Z,12.98
2022-07-29T00:25:49.610Z,12.96
2022-07-29T00:26:49.654Z,12.9
2022-07-29T00:27:49.675Z,12.93
2022-07-29T00:28:49.700Z,13.06
2022-07-29T00:29:49.765Z,12.97
2022-07-29T00:30:49.889Z,12.98
2022-07-29T00:31:49.910Z,12.89
2022-07-29T00:32:49.773Z,12.83
2022-07-29T00:33:49.758Z,12.84
2022-07-29T00:34:49.653Z,12.87
2022-07-29T00:35:50.179Z,13.02
2022-07-29T00:36:49.819Z,13.03
2022-07-29T00:37:49.879Z,12.99
2022-07-29T00:38:52.925Z,12.92
2022-07-29T00:39:50.119Z,12.99
2022-07-29T00:40:49.839Z,12.91
2022-07-29T00:41:50.184Z,12.98
2022-07-29T00:42:51.223Z,12.88
2022-07-29T00:43:49.973Z,12.95
2022-07-29T00:44:49.980Z,12.95
2022-07-29T00:45:50.178Z,12.96
2022-07-29T00:46:50.165Z,12.92
2022-07-29T00:47:50.073Z,12.85
2022-07-29T00:48:50.213Z,12.88
2022-07-29T00:49:50.006Z,12.9
2022-07-29T00:50:50.722Z,12.85
2022-07-29T00:51:50.467Z,12.91
2022-07-29T00:52:51.149Z,12.89
2022-07-29T00:53:50.086Z,12.95
2022-07-29T00:54:50.068Z,12.91
2022-07-29T00:55:50.207Z,12.82
2022-07-29T00:56:50.295Z,12.9
2022-07-29T00:57:50.486Z,12.92
2022-07-29T00:58:51.623Z,12.91
2022-07-29T00:59:50.210Z,12.81
2022-07-29T01:00:50.474Z,12.82
2022-07-29T01:01:50.247Z,12.8
2022-07-29T01:02:50.274Z,12.83
2022-07-29T01:03:50.342Z,12.83
2022-07-29T01:04:50.510Z,12.84
2022-07-29T01:05:51.993Z,12.83
2022-07-29T01:06:50.386Z,12.75
2022-07-29T01:07:52.161Z,12.81
2022-07-29T01:08:50.577Z,12.75
2022-07-29T01:09:51.192Z,12.82
2022-07-29T01:10:51.742Z,12.75
2022-07-29T01:11:51.000Z,12.77
2022-07-29T01:12:52.229Z,12.77
2022-07-29T01:13:50.602Z,12.8
2022-07-29T01:14:51.688Z,12.74
2022-07-29T01:15:57.544Z,12.71
2022-07-29T01:17:01.034Z,12.75
2022-07-29T01:30:23.643Z,12.66
2022-07-29T01:31:25.379Z,12.64
2022-07-29T01:32:28.664Z,12.62
2022-07-29T01:33:26.239Z,12.67
2022-07-29T01:34:28.794Z,12.64
2022-07-29T01:38:30.191Z,12.61
2022-07-29T01:41:35.215Z,12.61
2022-07-29T01:46:45.410Z,12.53
2022-07-29T01:48:50.257Z,12.5
2022-07-29T01:49:48.789Z,12.46
2022-07-29T01:50:57.780Z,12.51
2022-07-29T01:52:55.306Z,12.48
2022-07-29T01:54:58.236Z,12.43
2022-07-29T01:55:58.250Z,12.4
2022-07-29T01:56:57.340Z,12.33
2022-07-29T01:57:57.331Z,12.35
2022-07-29T01:58:57.293Z,12.35
2022-07-29T01:59:57.353Z,12.32
2022-07-29T02:00:57.411Z,12.3
2022-07-29T02:01:58.305Z,12.27
2022-07-29T02:02:56.940Z,12.22
2022-07-29T02:03:57.775Z,12.25
2022-07-29T02:04:57.462Z,12.19
2022-07-29T02:05:57.714Z,12.27
2022-07-29T02:06:57.963Z,12.16
2022-07-29T02:07:57.086Z,12.16
2022-07-29T02:08:57.314Z,12.16
2022-07-29T02:09:57.992Z,12.13
2022-07-29T02:10:56.432Z,12.12
2022-07-29T02:11:57.186Z,12.08
2022-07-29T02:12:58.058Z,12.06
2022-07-29T02:13:57.154Z,12.04
2022-07-29T02:15:00.684Z,12.08
2022-07-29T02:15:58.419Z,12.01
2022-07-29T02:16:59.335Z,12.02
2022-07-29T02:18:58.142Z,12
2022-07-29T02:20:00.315Z,12.12
2022-07-29T02:20:59.793Z,12.12
2022-07-29T02:21:58.710Z,12.01
2022-07-29T02:22:58.253Z,12
2022-07-29T02:24:00.485Z,11.99
2022-07-29T02:24:59.121Z,11.98
2022-07-29T02:25:58.872Z,11.95
2022-07-29T02:27:00.224Z,11.96
2022-07-29T02:27:59.693Z,11.92
2022-07-29T02:28:58.424Z,11.97
2022-07-29T02:29:59.470Z,11.92
2022-07-29T02:30:59.568Z,11.97
2022-07-29T02:31:59.301Z,11.92
2022-07-29T02:32:58.995Z,11.92
2022-07-29T02:33:58.289Z,11.87
2022-07-29T02:34:59.550Z,11.84
2022-07-29T02:35:59.233Z,11.85
2022-07-29T02:36:57.807Z,11.83
2022-07-29T02:37:58.417Z,11.82
2022-07-29T02:38:58.890Z,11.84
2022-07-29T02:39:59.071Z,11.84
2022-07-29T02:40:59.411Z,11.81
2022-07-29T02:42:04.727Z,11.81
2022-07-29T02:43:02.713Z,11.83
2022-07-29T02:45:05.820Z,11.8
2022-07-29T02:46:06.523Z,11.74
2022-07-29T02:48:11.299Z,11.7
2022-07-29T02:49:11.046Z,11.71
2022-07-29T02:51:43.419Z,11.69
2022-07-29T02:52:19.493Z,11.69
2022-07-29T02:53:19.003Z,11.69
2022-07-29T02:54:21.286Z,11.65
2022-07-29T02:55:20.441Z,11.66
2022-07-29T02:56:22.099Z,11.67
2022-07-29T02:57:23.900Z,11.67
2022-07-29T02:59:25.860Z,11.68
2022-07-29T03:00:27.997Z,11.65
2022-07-29T03:01:26.595Z,11.65
2022-07-29T03:02:26.721Z,11.69
2022-07-29T03:03:26.585Z,11.68
2022-07-29T03:04:26.974Z,11.68
2022-07-29T03:05:25.388Z,11.67
2022-07-29T03:06:28.823Z,11.7
2022-07-29T03:07:25.602Z,11.72
2022-07-29T03:08:25.777Z,11.66
2022-07-29T03:09:25.785Z,11.62
2022-07-29T03:10:28.341Z,11.63
2022-07-29T03:11:45.867Z,11.63
2022-07-29T03:12:27.695Z,11.62
2022-07-29T03:13:28.298Z,11.65
2022-07-29T03:14:27.405Z,11.61
2022-07-29T03:15:28.014Z,11.62
2022-07-29T03:16:27.212Z,11.56
2022-07-29T03:17:27.462Z,11.61
2022-07-29T03:18:27.359Z,11.69
2022-07-29T03:19:27.655Z,11.58
2022-07-29T03:20:27.313Z,11.52
2022-07-29T03:21:27.157Z,11.59
2022-07-29T03:22:27.269Z,11.61
2022-07-29T03:23:27.162Z,11.52
2022-07-29T03:24:30.556Z,11.51
2022-07-29T03:25:29.555Z,11.56
2022-07-29T03:26:29.785Z,11.54
2022-07-29T03:27:29.962Z,11.49
2022-07-29T03:28:30.365Z,11.53
2022-07-29T03:29:34.034Z,11.5
2022-07-29T03:30:30.781Z,11.45
2022-07-29T03:31:30.964Z,11.43
2022-07-29T03:32:30.799Z,11.48
2022-07-29T03:33:30.872Z,11.42
2022-07-29T03:34:30.796Z,11.49
2022-07-29T03:35:30.718Z,11.45
2022-07-29T03:36:30.878Z,11.5
2022-07-29T03:37:30.931Z,11.47
2022-07-29T03:38:34.906Z,11.48
2022-07-29T03:39:34.185Z,11.41
2022-07-29T03:41:33.896Z,11.47
2022-07-29T03:42:34.705Z,11.55
2022-07-29T03:43:35.629Z,11.48
2022-07-29T03:44:33.753Z,11.45
2022-07-29T03:45:34.581Z,11.45
2022-07-29T03:46:34.835Z,11.44
2022-07-29T03:47:43.520Z,11.4
2022-07-29T03:48:40.138Z,11.39
2022-07-29T03:49:38.356Z,11.4
2022-07-29T03:50:37.593Z,11.43
2022-07-29T03:51:37.801Z,11.45
2022-07-29T03:52:37.714Z,11.52
2022-07-29T03:53:37.632Z,11.46
2022-07-29T03:54:37.726Z,11.49
2022-07-29T03:55:39.009Z,11.56
2022-07-29T03:56:42.825Z,11.51
2022-07-29T03:57:40.803Z,11.42
2022-07-29T03:58:40.006Z,11.44
2022-07-29T03:59:40.425Z,11.44
2022-07-29T04:00:40.608Z,11.54
2022-07-29T04:01:40.632Z,11.52
2022-07-29T04:02:40.700Z,11.49
2022-07-29T04:03:40.270Z,11.54
2022-07-29T04:04:39.941Z,11.42
2022-07-29T04:05:40.145Z,11.39
2022-07-29T04:06:44.633Z,11.47
2022-07-29T04:07:48.790Z,11.44
2022-07-29T04:08:45.791Z,11.44
2022-07-29T04:09:45.735Z,11.37
2022-07-29T04:10:45.788Z,11.43
2022-07-29T04:12:02.072Z,11.53
2022-07-29T04:12:50.890Z,11.52
2022-07-29T04:13:50.680Z,11.58
2022-07-29T04:14:50.740Z,11.57
2022-07-29T04:15:51.285Z,11.52
2022-07-29T04:16:50.707Z,11.54
2022-07-29T04:17:51.171Z,11.6
2022-07-29T04:18:50.762Z,11.7
2022-07-29T04:19:50.736Z,11.59
2022-07-29T04:20:50.877Z,11.66
2022-07-29T04:21:50.764Z,11.68
2022-07-29T04:22:50.830Z,11.68
2022-07-29T04:23:52.990Z,11.65
2022-07-29T04:24:51.125Z,11.75
2022-07-29T04:25:51.181Z,11.68
2022-07-29T04:26:51.065Z,11.65
2022-07-29T04:27:51.031Z,11.68
2022-07-29T04:28:51.066Z,11.66
2022-07-29T04:29:56.843Z,11.63
2022-07-29T04:30:54.286Z,11.77
2022-07-29T04:31:54.199Z,11.8
2022-07-29T04:32:54.354Z,11.77
2022-07-29T04:33:54.355Z,11.77
2022-07-29T04:34:54.293Z,11.83
2022-07-29T04:35:55.129Z,11.79
2022-07-29T04:36:55.783Z,11.82
2022-07-29T04:37:54.557Z,11.81
2022-07-29T04:38:54.360Z,11.87
2022-07-29T04:39:54.570Z,11.93
2022-07-29T04:40:54.633Z,11.75
2022-07-29T04:41:54.988Z,11.85
2022-07-29T04:42:55.040Z,11.77
2022-07-29T04:43:54.524Z,11.82
2022-07-29T04:44:54.343Z,11.79
2022-07-29T04:45:54.319Z,11.82
2022-07-29T04:46:54.289Z,11.85
2022-07-29T04:47:54.379Z,11.98
2022-07-29T04:48:54.449Z,12.03
2022-07-29T04:49:54.372Z,12.11
2022-07-29T04:50:54.334Z,12.03
2022-07-29T04:51:54.419Z,11.96
2022-07-29T04:52:54.615Z,11.94
2022-07-29T04:53:54.373Z,12.01
2022-07-29T04:54:54.588Z,11.97
2022-07-29T04:55:54.503Z,11.97
2022-07-29T04:56:54.492Z,12.06
2022-07-29T04:57:54.501Z,12.19
2022-07-29T04:58:54.444Z,12.06
2022-07-29T04:59:54.563Z,12.14
2022-07-29T05:00:54.646Z,12.2
2022-07-29T05:01:54.627Z,12.17
2022-07-29T05:02:54.592Z,12.26
2022-07-29T05:03:59.848Z,12.26
2022-07-29T05:04:57.428Z,12.2
2022-07-29T05:05:57.400Z,12.29
2022-07-29T05:06:57.543Z,12.31
2022-07-29T05:07:57.417Z,12.37
2022-07-29T05:08:57.566Z,12.34
2022-07-29T05:09:57.516Z,12.41
2022-07-29T05:10:57.473Z,12.53
2022-07-29T05:11:57.586Z,12.62
2022-07-29T05:12:57.511Z,12.5
2022-07-29T05:13:57.469Z,12.43
2022-07-29T05:14:57.525Z,12.51
2022-07-29T05:15:58.026Z,12.44
2022-07-29T05:16:57.539Z,12.52
2022-07-29T05:17:57.589Z,12.59
2022-07-29T05:18:57.601Z,12.62
2022-07-29T05:19:57.636Z,12.65
2022-07-29T05:20:57.618Z,12.73
2022-07-29T05:21:57.530Z,12.75
2022-07-29T05:22:58.810Z,12.85
2022-07-29T05:23:57.816Z,12.8
2022-07-29T05:24:57.736Z,12.78
2022-07-29T05:25:57.728Z,12.84
2022-07-29T05:26:57.710Z,12.88
2022-07-29T05:27:58.294Z,12.87
2022-07-29T05:28:57.925Z,12.97
2022-07-29T05:29:57.762Z,12.99
2022-07-29T05:30:57.815Z,12.92
2022-07-29T05:31:57.706Z,12.98
2022-07-29T05:32:57.734Z,13
2022-07-29T05:33:57.756Z,13.03
2022-07-29T05:34:57.745Z,13.08
2022-07-29T05:36:00.575Z,13.07
2022-07-29T05:36:58.630Z,13.06
2022-07-29T05:37:58.159Z,13.16
2022-07-29T05:38:58.119Z,13.27
2022-07-29T05:39:59.087Z,13.23
2022-07-29T05:40:59.417Z,13.26
2022-07-29T05:41:58.200Z,13.25
2022-07-29T05:42:58.196Z,13.19
2022-07-29T05:43:58.372Z,13.15
2022-07-29T05:44:58.235Z,13.21
2022-07-29T05:45:58.588Z,13.16
2022-07-29T05:46:58.299Z,13.09
2022-07-29T05:47:58.307Z,13.14
2022-07-29T05:48:58.315Z,13.16
2022-07-29T05:49:58.396Z,13.24
2022-07-29T05:50:58.360Z,13.37
2022-07-29T05:51:58.486Z,13.45
2022-07-29T05:52:58.362Z,13.35
2022-07-29T05:53:58.262Z,13.27
2022-07-29T05:54:58.388Z,13.2
2022-07-29T05:55:58.366Z,13.24
2022-07-29T05:56:58.482Z,13.22
2022-07-29T05:57:58.396Z,13.25
2022-07-29T05:58:58.459Z,13.29
2022-07-29T05:59:58.480Z,13.29
2022-07-29T06:00:58.694Z,13.33
2022-07-29T06:01:58.857Z,13.59
2022-07-29T06:02:58.488Z,13.5
2022-07-29T06:03:58.595Z,13.48
2022-07-29T06:04:58.899Z,13.62
2022-07-29T06:05:58.586Z,13.66
2022-07-29T06:06:58.564Z,13.54
2022-07-29T06:07:58.750Z,13.5
2022-07-29T06:08:58.504Z,13.5
2022-07-29T06:09:58.567Z,13.51
2022-07-29T06:10:58.592Z,13.45
2022-07-29T06:11:58.607Z,13.51
2022-07-29T06:12:58.638Z,13.65
2022-07-29T06:13:58.625Z,13.84
2022-07-29T06:14:58.729Z,13.78
2022-07-29T06:15:59.438Z,13.84
2022-07-29T06:16:58.676Z,13.97
2022-07-29T06:17:59.038Z,14.01
2022-07-29T06:18:58.689Z,14.16
2022-07-29T06:19:58.750Z,14.06
2022-07-29T06:20:58.625Z,13.99
2022-07-29T06:21:59.014Z,14.05
2022-07-29T06:22:58.963Z,13.9
2022-07-29T06:23:58.770Z,13.88
2022-07-29T06:24:58.871Z,13.89
2022-07-29T06:25:58.743Z,14.06
2022-07-29T06:26:58.766Z,13.89
2022-07-29T06:27:59.008Z,13.98
2022-07-29T06:28:58.778Z,14.03
2022-07-29T06:29:58.957Z,14.07
2022-07-29T06:30:59.034Z,14.24
2022-07-29T06:31:58.778Z,14.15
2022-07-29T06:32:59.109Z,14.26
2022-07-29T06:33:58.882Z,14.21
2022-07-29T06:35:12.045Z,14.45
2022-07-29T06:36:00.307Z,14.27
2022-07-29T06:37:00.398Z,14.17
2022-07-29T06:38:00.405Z,13.97
2022-07-29T06:39:00.375Z,14
2022-07-29T06:40:00.403Z,14.32
2022-07-29T06:41:01.013Z,14.28
2022-07-29T06:42:00.440Z,14.41
2022-07-29T06:43:00.539Z,14.34
2022-07-29T06:44:00.442Z,14.35
2022-07-29T06:45:00.476Z,14.68
2022-07-29T06:46:01.444Z,14.5
2022-07-29T06:47:01.264Z,14.65
2022-07-29T06:48:00.498Z,14.55
2022-07-29T06:49:00.690Z,14.39
2022-07-29T06:50:00.655Z,14.3
2022-07-29T06:51:01.142Z,14.39
2022-07-29T06:52:00.662Z,14.65
2022-07-29T06:53:00.637Z,14.36
2022-07-29T06:54:02.762Z,14.48
2022-07-29T06:55:05.434Z,14.57
2022-07-29T06:56:05.827Z,14.41
2022-07-29T06:57:04.995Z,14.53
2022-07-29T06:58:04.975Z,14.74
2022-07-29T06:59:05.497Z,14.58
2022-07-29T07:00:05.509Z,14.7
2022-07-29T07:01:06.038Z,14.74
2022-07-29T07:02:05.216Z,14.99
2022-07-29T07:03:04.997Z,14.8
2022-07-29T07:04:05.031Z,14.86
2022-07-29T07:05:05.853Z,15.33
2022-07-29T07:06:05.076Z,15.56
2022-07-29T07:07:04.975Z,15.01
2022-07-29T07:08:05.382Z,14.72
2022-07-29T07:09:05.215Z,14.82
2022-07-29T07:10:05.511Z,14.78
2022-07-29T07:11:05.108Z,14.75
2022-07-29T07:12:05.602Z,14.95
2022-07-29T07:13:05.522Z,14.85
2022-07-29T07:14:05.234Z,14.83
2022-07-29T07:15:05.652Z,14.88
2022-07-29T07:16:05.454Z,15.1
2022-07-29T07:17:05.227Z,14.8
2022-07-29T07:18:06.107Z,14.63
2022-07-29T07:19:05.166Z,14.67
2022-07-29T07:20:06.287Z,14.79
2022-07-29T07:21:05.254Z,14.91
2022-07-29T07:22:05.200Z,15.06
2022-07-29T07:23:05.190Z,15.47
2022-07-29T07:24:05.703Z,15.39
2022-07-29T07:25:05.573Z,14.99
2022-07-29T07:26:05.263Z,14.99
2022-07-29T07:27:05.287Z,14.9
2022-07-29T07:28:05.281Z,14.82
2022-07-29T07:29:05.356Z,14.87
2022-07-29T07:30:06.399Z,14.99
2022-07-29T07:31:06.017Z,15.07
2022-07-29T07:32:05.744Z,15.21
2022-07-29T07:33:05.414Z,15.47
2022-07-29T07:34:05.527Z,16
2022-07-29T07:35:06.397Z,15.41
2022-07-29T07:36:05.653Z,15.22
2022-07-29T07:37:05.649Z,15.36
2022-07-29T07:38:05.391Z,15.26
2022-07-29T07:39:05.509Z,15.21
2022-07-29T07:40:05.985Z,15.09
2022-07-29T07:41:05.475Z,15.19
2022-07-29T07:42:05.755Z,15.04
2022-07-29T07:43:05.711Z,14.75
2022-07-29T07:44:05.480Z,14.76
2022-07-29T07:45:13.495Z,14.84
2022-07-29T07:46:10.321Z,15.02
2022-07-29T07:47:12.517Z,15.63
2022-07-29T07:48:10.277Z,15.57
2022-07-29T07:49:10.336Z,15.4
2022-07-29T07:50:16.337Z,15.35
2022-07-29T07:51:15.209Z,15.36
2022-07-29T07:52:16.678Z,15.35
2022-07-29T07:53:15.078Z,15.4
2022-07-29T07:54:15.576Z,15.26
2022-07-29T07:55:15.235Z,15.14
2022-07-29T07:56:16.082Z,14.96
2022-07-29T07:57:15.781Z,15.05
2022-07-29T07:58:15.281Z,15.2
2022-07-29T07:59:15.477Z,15.41
2022-07-29T08:00:16.287Z,15.54
2022-07-29T08:01:15.242Z,15.69
2022-07-29T08:02:15.546Z,15.58
2022-07-29T08:03:16.600Z,15.39
2022-07-29T08:04:15.643Z,15.33
2022-07-29T08:05:15.318Z,15.34
2022-07-29T08:06:15.370Z,15.21
2022-07-29T08:07:15.384Z,15.25
2022-07-29T08:08:15.385Z,15.29
2022-07-29T08:09:28.654Z,15.47
2022-07-29T08:10:17.673Z,15.33
2022-07-29T08:11:17.198Z,15.7
2022-07-29T08:12:17.182Z,15.45
2022-07-29T08:13:17.054Z,15.32
2022-07-29T08:14:17.549Z,15.3
2022-07-29T08:15:17.069Z,15.26
2022-07-29T08:16:17.342Z,15.2
2022-07-29T08:17:17.110Z,15.1
2022-07-29T08:18:17.125Z,14.92
2022-07-29T08:19:17.241Z,14.75
2022-07-29T08:20:17.211Z,14.89
2022-07-29T08:21:17.318Z,15.13
2022-07-29T08:22:17.219Z,15.16
2022-07-29T08:23:17.164Z,15.35
2022-07-29T08:24:17.179Z,16.13
2022-07-29T08:25:17.145Z,16.11
2022-07-29T08:26:17.284Z,15.92
2022-07-29T08:27:42.086Z,16.89
2022-07-29T08:28:18.747Z,16.51
2022-07-29T08:29:20.146Z,16.03
2022-07-29T08:30:18.939Z,16.22
2022-07-29T08:31:19.052Z,16.17
2022-07-29T08:32:36.944Z,16.02
2022-07-29T08:33:20.232Z,16.53
2022-07-29T08:34:21.562Z,16.46
2022-07-29T08:35:25.052Z,16.2
2022-07-29T08:36:24.327Z,16.34
2022-07-29T08:37:24.394Z,16.45
2022-07-29T08:38:24.305Z,15.98
2022-07-29T08:39:24.988Z,15.7
2022-07-29T08:40:31.877Z,15.74
2022-07-29T08:41:29.245Z,16.19
2022-07-29T08:42:29.149Z,16.43
2022-07-29T08:43:29.523Z,16.39
2022-07-29T08:44:30.736Z,16.79
2022-07-29T08:45:30.625Z,16.7
2022-07-29T08:46:29.290Z,16.08
2022-07-29T08:47:29.338Z,16.52
2022-07-29T08:48:29.341Z,16.5
2022-07-29T08:49:29.451Z,16.37
2022-07-29T08:50:29.550Z,16.25
2022-07-29T08:51:30.734Z,16.15
2022-07-29T08:52:33.470Z,16.27
2022-07-29T08:53:30.413Z,16.17
2022-07-29T08:54:30.275Z,15.75
2022-07-29T08:55:31.239Z,15.63
2022-07-29T08:56:31.088Z,15.69
2022-07-29T08:57:31.803Z,15.86
2022-07-29T08:58:36.835Z,15.78
2022-07-29T08:59:35.234Z,15.82
2022-07-29T09:00:34.080Z,16.12
2022-07-29T09:01:36.048Z,16.1
2022-07-29T09:02:36.499Z,16.05
2022-07-29T09:03:35.467Z,16.85
2022-07-29T09:04:35.404Z,16.6
2022-07-29T09:05:38.179Z,16.94
2022-07-29T09:06:38.211Z,17.06
2022-07-29T09:07:37.335Z,17.06
2022-07-29T09:08:37.123Z,16.88
2022-07-29T09:09:37.313Z,17.24
2022-07-29T09:10:37.335Z,17.05
2022-07-29T09:11:37.712Z,17.73
2022-07-29T09:12:38.157Z,17.89
2022-07-29T09:13:37.204Z,17.35
2022-07-29T09:14:37.286Z,17.11
2022-07-29T09:15:37.381Z,16.94
2022-07-29T09:17:41.676Z,17.06
2022-07-29T09:18:41.877Z,17.01
2022-07-29T09:19:45.519Z,17.32
2022-07-29T09:20:52.636Z,17.37
2022-07-29T09:21:44.759Z,17.6
2022-07-29T09:22:45.104Z,17.4
2022-07-29T09:24:48.583Z,16.87
2022-07-29T09:25:48.634Z,17.02
2022-07-29T09:26:48.602Z,17.21
2022-07-29T09:27:51.183Z,17.42
2022-07-29T09:28:48.699Z,17.8
2022-07-29T09:30:56.798Z,18.03
2022-07-29T09:31:54.216Z,17.62
2022-07-29T09:32:56.981Z,16.94
2022-07-29T09:33:53.405Z,17.03
2022-07-29T09:36:05.887Z,17.12
2022-07-29T09:37:03.427Z,17.24
2022-07-29T09:38:12.408Z,17.09
2022-07-29T09:39:04.516Z,16.9
2022-07-29T09:40:12.077Z,16.66
2022-07-29T09:41:09.075Z,16.51
2022-07-29T09:42:09.117Z,16.45
2022-07-29T09:43:12.629Z,16.43
2022-07-29T09:44:09.674Z,16.36
2022-07-29T09:45:10.635Z,16.37
2022-07-29T09:46:13.252Z,16.45
2022-07-29T09:47:10.422Z,16.48
2022-07-29T09:49:13.989Z,16.55
2022-07-29T09:50:12.610Z,16.53
2022-07-29T09:51:25.517Z,16.71
2022-07-29T09:52:15.346Z,17.31
2022-07-29T09:55:19.772Z,17.65
2022-07-29T09:56:19.031Z,17.92
2022-07-29T09:57:30.552Z,17.63
2022-07-29T09:58:23.412Z,17.76
2022-07-29T09:59:22.826Z,18.39
2022-07-29T10:00:22.847Z,17.87
2022-07-29T10:01:29.295Z,17.94
2022-07-29T10:02:30.173Z,17.94
2022-07-29T10:03:26.890Z,18.58
2022-07-29T10:05:36.229Z,18.3
2022-07-29T10:06:33.478Z,17.94
2022-07-29T10:08:35.917Z,17.29
2022-07-29T10:09:36.433Z,17.24
2022-07-29T10:10:36.604Z,17.34
2022-07-29T10:11:48.984Z,17.38
2022-07-29T10:12:49.090Z,17.69
2022-07-29T10:13:42.017Z,17.44
2022-07-29T10:14:41.841Z,17.31
2022-07-29T10:15:42.159Z,17.1
2022-07-29T10:16:41.364Z,16.98
2022-07-29T10:17:41.984Z,17
2022-07-29T10:18:42.051Z,17.14
2022-07-29T10:19:41.195Z,17.29
2022-07-29T10:20:41.070Z,17.26
2022-07-29T10:21:41.246Z,17.28
2022-07-29T10:22:52.974Z,17.26
2022-07-29T10:23:47.075Z,17.49
2022-07-29T10:24:45.877Z,17.3
2022-07-29T10:25:46.851Z,17.17
2022-07-29T10:26:46.067Z,17.3
2022-07-29T10:27:46.508Z,17.11
2022-07-29T10:28:46.080Z,17.04
2022-07-29T10:29:45.851Z,16.97
2022-07-29T10:30:46.956Z,16.98
2022-07-29T10:39:24.571Z,16.6
2022-07-29T10:42:19.898Z,16.97
2022-07-29T10:44:23.290Z,17.14
2022-07-29T10:45:17.848Z,17.42
2022-07-29T10:46:15.832Z,17.43
2022-07-29T10:47:25.078Z,17.82
2022-07-29T10:48:17.087Z,17.94
2022-07-29T10:49:24.397Z,17.76
2022-07-29T10:50:21.791Z,17.81
2022-07-29T10:51:21.853Z,17.79
2022-07-29T10:52:26.665Z,18.29
2022-07-29T10:53:22.593Z,18.19
2022-07-29T10:56:32.764Z,18.61
2022-07-29T10:57:54.152Z,18.68
2022-07-29T10:58:32.158Z,18.75
2022-07-29T10:59:36.233Z,18.8
2022-07-29T11:00:33.298Z,18.84
2022-07-29T11:01:37.534Z,18.95
2022-07-29T11:03:49.163Z,18.2
2022-07-29T11:05:54.175Z,18.15
2022-07-29T11:11:58.976Z,17.9
2022-07-29T11:12:58.518Z,17.75
2022-07-29T11:13:58.517Z,17.71
2022-07-29T11:15:01.517Z,17.6
2022-07-29T11:15:58.806Z,17.66
2022-07-29T11:16:59.850Z,17.48
2022-07-29T11:18:07.750Z,17.55
2022-07-29T11:22:10.733Z,17.8
2022-07-29T11:24:18.609Z,17.79
2022-07-29T11:25:17.725Z,17.95
2022-07-29T11:26:20.478Z,18.25
2022-07-29T11:27:20.466Z,18.25
2022-07-29T11:28:22.407Z,18.31
2022-07-29T11:29:23.073Z,18.7
2022-07-29T11:30:22.147Z,19.03
2022-07-29T11:31:35.657Z,18.68
2022-07-29T11:32:23.773Z,18.79
2022-07-29T11:33:54.514Z,18.77
2022-07-29T11:35:38.395Z,19.03
2022-07-29T11:36:31.741Z,18.98
2022-07-29T11:37:31.743Z,19.25
2022-07-29T11:38:32.283Z,19.53
2022-07-29T11:39:37.192Z,19.33
2022-07-29T11:40:34.760Z,18.86
2022-07-29T11:41:34.750Z,18.9
2022-07-29T11:42:41.810Z,18.81
2022-07-29T11:43:50.598Z,18.56
2022-07-29T11:47:47.847Z,18.46
2022-07-29T11:48:44.551Z,18.35
2022-07-29T11:49:45.396Z,18.76
2022-07-29T11:50:45.636Z,18.54
2022-07-29T11:51:51.300Z,18.51
2022-07-29T11:52:50.068Z,18.26
2022-07-29T11:53:48.468Z,18.2
2022-07-29T11:54:58.555Z,18.18
2022-07-29T11:55:55.786Z,18.15
2022-07-29T11:56:52.719Z,18.36
2022-07-29T11:58:03.816Z,18.46
2022-07-29T12:00:04.606Z,18.38
2022-07-29T12:01:04.692Z,18.45
2022-07-29T12:02:33.165Z,18.57
2022-07-29T12:03:04.672Z,18.72
2022-07-29T12:04:03.983Z,18.56
2022-07-29T12:05:10.447Z,18.38
2022-07-29T12:07:15.297Z,18.88
2022-07-29T12:09:16.504Z,19.09
2022-07-29T12:10:19.977Z,19.26
2022-07-29T12:11:21.347Z,19.36
2022-07-29T12:12:19.286Z,19.46
2022-07-29T12:13:20.447Z,19.82
2022-07-29T12:14:31.984Z,19.9
2022-07-29T12:15:24.220Z,19.65
2022-07-29T12:16:35.818Z,19.76
2022-07-29T12:17:32.715Z,19.75
2022-07-29T12:18:30.260Z,19.21
2022-07-29T12:19:42.649Z,18.91
2022-07-29T12:20:31.770Z,18.99
2022-07-29T12:23:37.450Z,18.71
2022-07-29T12:25:43.278Z,18.75
2022-07-29T12:27:46.508Z,18.32
2022-07-29T12:28:47.073Z,18.2
2022-07-29T12:29:48.040Z,18.25
2022-07-29T12:30:47.192Z,18.07
2022-07-29T12:31:47.224Z,18.15
2022-07-29T12:32:47.662Z,18.18
2022-07-29T12:33:52.809Z,17.95
2022-07-29T12:34:49.484Z,17.82
2022-07-29T12:36:03.796Z,17.82
2022-07-29T12:36:53.668Z,17.79
2022-07-29T12:37:54.030Z,17.84
2022-07-29T12:38:53.816Z,17.75
2022-07-29T12:39:53.738Z,17.67
2022-07-29T12:40:54.585Z,17.6
2022-07-29T12:41:54.126Z,17.6
2022-07-29T12:43:06.572Z,17.63
2022-07-29T12:43:58.548Z,17.6
2022-07-29T12:44:58.720Z,17.82
2022-07-29T12:45:58.832Z,17.72
2022-07-29T12:47:04.692Z,17.76
2022-07-29T12:48:04.200Z,18.15
2022-07-29T12:49:04.140Z,18.16
2022-07-29T12:50:11.975Z,18.07
2022-07-29T12:51:04.736Z,17.83
2022-07-29T12:54:10.472Z,17.45
2022-07-29T12:55:08.757Z,17.31
2022-07-29T12:57:20.162Z,16.9
2022-07-29T12:59:21.722Z,16.71
2022-07-29T13:00:24.242Z,16.51
2022-07-29T13:01:21.521Z,16.47
2022-07-29T13:02:22.418Z,16.32
2022-07-29T13:03:21.369Z,16.02
2022-07-29T13:04:28.140Z,15.79
2022-07-29T13:05:25.038Z,15.6
2022-07-29T13:06:35.999Z,15.95
2022-07-29T13:07:54.256Z,15.7
2022-07-29T13:08:28.337Z,15.75
2022-07-29T13:09:37.659Z,15.97
2022-07-29T13:10:29.132Z,15.94
2022-07-29T13:12:30.739Z,15.85
2022-07-29T13:13:30.676Z,15.84
2022-07-29T13:14:32.123Z,15.86
2022-07-29T13:15:30.825Z,15.92
2022-07-29T13:16:30.849Z,16.03
2022-07-29T13:18:35.618Z,15.81
2022-07-29T13:19:39.964Z,16
2022-07-29T13:20:36.524Z,15.98
2022-07-29T13:21:36.804Z,16.21
2022-07-29T13:22:36.498Z,16.23
2022-07-29T13:23:38.295Z,16.3
2022-07-29T13:25:38.289Z,16.62
2022-07-29T13:26:40.857Z,16.62
2022-07-29T13:27:38.790Z,16.64
2022-07-29T13:28:38.511Z,16.69
2022-07-29T13:29:38.092Z,16.99
2022-07-29T13:30:38.581Z,17.1
2022-07-29T13:31:41.238Z,17.05
2022-07-29T13:32:41.242Z,17.14
2022-07-29T13:33:41.311Z,17.42
2022-07-29T13:34:41.279Z,17.67
2022-07-29T13:35:41.289Z,17.45
2022-07-29T13:36:41.732Z,17.46
2022-07-29T13:37:41.512Z,17.43
2022-07-29T13:38:41.366Z,17.5
2022-07-29T13:39:41.331Z,17.53
2022-07-29T13:40:41.960Z,18.06
2022-07-29T13:41:41.361Z,18.45
2022-07-29T13:42:41.771Z,19.12
2022-07-29T13:43:41.424Z,19.29
2022-07-29T13:44:41.450Z,19.03
2022-07-29T13:45:41.456Z,18.59
2022-07-29T13:46:41.417Z,18.8
2022-07-29T13:47:44.780Z,19.13
2022-07-29T13:48:44.331Z,18.85
2022-07-29T13:49:44.619Z,18.43
2022-07-29T13:50:44.282Z,18.33
2022-07-29T13:51:44.333Z,18.27
2022-07-29T13:52:44.294Z,18.2
2022-07-29T13:53:46.721Z,18.06
2022-07-29T13:54:46.897Z,18.1
2022-07-29T13:55:46.631Z,18.08
2022-07-29T13:56:46.820Z,17.67
2022-07-29T13:57:46.927Z,17.55
2022-07-29T13:58:46.772Z,17.59
2022-07-29T13:59:50.537Z,17.49
2022-07-29T14:00:50.510Z,17.44
2022-07-29T14:01:50.124Z,17.49
2022-07-29T14:02:50.149Z,17.62
2022-07-29T14:03:50.045Z,17.61
2022-07-29T14:04:50.170Z,17.79
2022-07-29T14:05:50.129Z,17.82
2022-07-29T14:06:50.590Z,17.65
2022-07-29T14:07:50.159Z,17.74
2022-07-29T14:08:50.153Z,17.77
2022-07-29T14:09:50.241Z,17.7
2022-07-29T14:10:50.232Z,17.86
2022-07-29T14:11:50.233Z,17.91
2022-07-29T14:12:50.196Z,17.8
2022-07-29T14:13:50.210Z,17.96
2022-07-29T14:14:50.269Z,17.68
2022-07-29T14:15:50.201Z,17.44
2022-07-29T14:16:52.328Z,17.6
2022-07-29T14:17:50.546Z,17.45
2022-07-29T14:18:50.286Z,17.5
2022-07-29T14:19:50.308Z,17.51
2022-07-29T14:20:50.490Z,17.6
2022-07-29T14:21:50.309Z,17.68
2022-07-29T14:22:50.411Z,17.74
2022-07-29T14:23:50.506Z,17.63
2022-07-29T14:24:50.323Z,17.69